createdAt,value
2024-05-09T00:04:25.693Z,70.1
2024-05-09T00:16:25.587Z,70.1
2024-05-09T00:28:25.587Z,70.1
2024-05-09T00:40:31.247Z,77.9
2024-05-09T00:52:25.459Z,77.9
2024-05-09T01:04:25.538Z,94.0
2024-05-09T01:16:25.548Z,94.0
2024-05-09T01:28:25.449Z,94.0
2024-05-09T01:40:35.420Z,95.5
2024-05-09T01:52:25.498Z,95.5
2024-05-09T02:04:25.799Z,85.3
2024-05-09T02:16:25.474Z,85.3
2024-05-09T02:28:25.454Z,85.3
2024-05-09T02:40:33.738Z,113.3
2024-05-09T02:52:25.446Z,113.3
2024-05-09T03:04:25.521Z,115.2
2024-05-09T03:16:25.573Z,115.2
2024-05-09T03:28:25.505Z,115.2
2024-05-09T03:40:28.967Z,131.3
2024-05-09T03:52:25.459Z,131.3
2024-05-09T04:04:25.533Z,381.1
2024-05-09T04:16:25.446Z,381.1
2024-05-09T04:28:25.454Z,381.1
2024-05-09T04:40:32.871Z,354.2
2024-05-09T04:52:25.452Z,354.2
2024-05-09T05:04:25.508Z,163.8
2024-05-09T05:16:25.451Z,163.8
2024-05-09T05:28:25.449Z,163.8
2024-05-09T05:40:33.098Z,215.7
2024-05-09T05:52:25.457Z,215.7
2024-05-09T06:04:25.553Z,230.3
2024-05-09T06:16:25.454Z,230.3
2024-05-09T06:28:25.465Z,230.3
2024-05-09T06:40:30.030Z,313.1
2024-05-09T06:52:25.450Z,313.1
2024-05-09T07:04:25.677Z,106.8
2024-05-09T07:16:25.473Z,106.8
2024-05-09T07:28:25.469Z,106.8
2024-05-09T07:40:32.991Z,45.3
2024-05-09T08:04:26.671Z,27.4
2024-05-09T08:16:25.549Z,27.4
2024-05-09T08:28:25.522Z,27.4
2024-05-09T08:40:32.944Z,10.9
2024-05-09T08:52:26.562Z,10.9
2024-05-09T09:04:25.567Z,11.2
2024-05-09T09:16:25.609Z,11.2
2024-05-09T09:28:25.474Z,11.2
2024-05-09T09:52:25.554Z,12.8
2024-05-09T10:04:25.706Z,5.0
2024-05-09T10:16:25.640Z,5.0
2024-05-09T10:28:25.453Z,5.0
2024-05-09T10:40:31.045Z,6.9
2024-05-09T10:52:25.500Z,6.9
2024-05-09T11:04:25.572Z,6.3
2024-05-09T11:16:25.507Z,6.3
2024-05-09T11:28:25.501Z,6.3
2024-05-09T11:40:32.020Z,7.5
2024-05-09T11:52:25.540Z,7.5
2024-05-09T12:04:25.635Z,6.4
2024-05-09T12:16:25.672Z,6.4
2024-05-09T12:28:25.501Z,6.4
2024-05-09T12:40:33.442Z,5.3
2024-05-09T12:52:25.455Z,5.3
2024-05-09T13:04:26.664Z,6.1
2024-05-09T13:16:25.644Z,6.1
2024-05-09T13:28:25.674Z,6.1
2024-05-09T13:40:32.666Z,4.4
2024-05-09T13:52:25.502Z,4.4
2024-05-09T14:04:25.714Z,4.1
2024-05-09T14:16:25.618Z,4.1
2024-05-09T14:28:25.536Z,4.1
2024-05-09T14:40:36.246Z,2.6
2024-05-09T14:52:25.443Z,2.6
2024-05-09T15:04:25.669Z,3.6
2024-05-09T15:16:25.638Z,3.6
2024-05-09T15:28:25.609Z,3.6
2024-05-09T15:40:34.994Z,3.9
2024-05-09T15:52:25.450Z,3.9
2024-05-09T16:04:25.649Z,3.0
2024-05-09T16:16:25.579Z,3.0
2024-05-09T16:28:27.083Z,3.0
2024-05-09T16:40:34.414Z,4.8
2024-05-09T16:52:25.489Z,4.8
2024-05-09T17:04:25.560Z,4.0
2024-05-09T17:16:25.558Z,4.0
2024-05-09T17:28:25.515Z,4.0
2024-05-09T17:40:31.529Z,4.7
2024-05-09T17:52:25.499Z,4.7
2024-05-09T18:04:25.601Z,5.6
2024-05-09T18:16:25.614Z,5.6
2024-05-09T18:28:25.666Z,5.6
2024-05-09T18:40:32.398Z,6.1
2024-05-09T18:52:25.454Z,6.1
2024-05-09T19:04:25.716Z,11.5
2024-05-09T19:16:25.521Z,11.5
2024-05-09T19:28:25.697Z,11.5
2024-05-09T19:40:31.101Z,7.1
2024-05-09T19:52:25.571Z,7.1
2024-05-09T20:04:25.702Z,18.5
2024-05-09T20:16:25.552Z,18.5
2024-05-09T20:28:25.776Z,18.5
2024-05-09T20:40:31.649Z,9.1
2024-05-09T20:52:25.567Z,9.1
2024-05-09T21:04:25.660Z,9.6
2024-05-09T21:16:25.671Z,9.6
2024-05-09T21:28:25.713Z,9.6
2024-05-09T21:40:31.674Z,10.6
2024-05-09T21:52:25.577Z,10.6
2024-05-09T22:04:25.645Z,8.9
2024-05-09T22:16:25.717Z,8.9
2024-05-09T22:28:25.494Z,8.9
2024-05-09T22:40:37.893Z,11.2
2024-05-09T22:52:25.461Z,11.2
2024-05-09T23:04:25.614Z,10.3
2024-05-09T23:16:25.687Z,10.3
2024-05-09T23:28:25.756Z,10.3
2024-05-09T23:40:35.011Z,13.4
2024-05-09T23:52:25.610Z,13.4
